sensor_id;sensor_type;location;lat;lon;timestamp;temperature;humidity
13223;DHT22;6676;45.192;5.722;2022-10-16T00:02:20;16.10;99.90
13223;DHT22;6676;45.192;5.722;2022-10-16T00:05:12;16.10;99.90
13223;DHT22;6676;45.192;5.722;2022-10-16T00:08:03;16.10;99.90
13223;DHT22;6676;45.192;5.722;2022-10-16T00:11:00;16.10;99.90
13223;DHT22;6676;45.192;5.722;2022-10-16T00:13:54;16.10;99.90
13223;DHT22;6676;45.192;5.722;2022-10-16T00:16:45;16.10;99.90
13223;DHT22;6676;45.192;5.722;2022-10-16T00:19:36;16.10;99.90
13223;DHT22;6676;45.192;5.722;2022-10-16T00:22:28;16.00;99.90
13223;DHT22;6676;45.192;5.722;2022-10-16T00:25:19;16.00;99.90
13223;DHT22;6676;45.192;5.722;2022-10-16T00:28:11;15.90;99.90
13223;DHT22;6676;45.192;5.722;2022-10-16T00:31:05;15.90;99.90
13223;DHT22;6676;45.192;5.722;2022-10-16T00:33:56;15.80;99.90
13223;DHT22;6676;45.192;5.722;2022-10-16T00:36:48;15.80;99.90
13223;DHT22;6676;45.192;5.722;2022-10-16T00:42:23;15.80;99.90
13223;DHT22;6676;45.192;5.722;2022-10-16T00:45:15;15.70;99.90
13223;DHT22;6676;45.192;5.722;2022-10-16T00:48:11;15.50;99.90
13223;DHT22;6676;45.192;5.722;2022-10-16T00:51:03;15.50;99.90
13223;DHT22;6676;45.192;5.722;2022-10-16T00:53:55;15.50;99.90
13223;DHT22;6676;45.192;5.722;2022-10-16T00:56:48;15.40;99.90
13223;DHT22;6676;45.192;5.722;2022-10-16T00:59:41;15.40;99.90
13223;DHT22;6676;45.192;5.722;2022-10-16T01:05:13;15.30;99.90
13223;DHT22;6676;45.192;5.722;2022-10-16T01:08:08;15.20;99.90
13223;DHT22;6676;45.192;5.722;2022-10-16T01:11:03;15.20;99.90
13223;DHT22;6676;45.192;5.722;2022-10-16T01:13:58;15.10;99.90
13223;DHT22;6676;45.192;5.722;2022-10-16T01:16:53;15.10;99.90
13223;DHT22;6676;45.192;5.722;2022-10-16T01:22:47;15.00;99.90
13223;DHT22;6676;45.192;5.722;2022-10-16T01:29:14;14.90;99.90
13223;DHT22;6676;45.192;5.722;2022-10-16T01:32:10;15.00;99.90
13223;DHT22;6676;45.192;5.722;2022-10-16T01:35:05;14.90;99.90
13223;DHT22;6676;45.192;5.722;2022-10-16T01:37:59;14.90;99.90
13223;DHT22;6676;45.192;5.722;2022-10-16T01:40:58;14.90;99.90
13223;DHT22;6676;45.192;5.722;2022-10-16T01:43:53;14.90;99.90
13223;DHT22;6676;45.192;5.722;2022-10-16T01:46:46;14.90;99.90
13223;DHT22;6676;45.192;5.722;2022-10-16T01:49:39;14.70;99.90
13223;DHT22;6676;45.192;5.722;2022-10-16T01:52:33;14.70;99.90
13223;DHT22;6676;45.192;5.722;2022-10-16T01:58:09;14.60;99.90
13223;DHT22;6676;45.192;5.722;2022-10-16T02:01:03;14.60;99.90
13223;DHT22;6676;45.192;5.722;2022-10-16T02:03:58;14.60;99.90
13223;DHT22;6676;45.192;5.722;2022-10-16T02:06:51;14.60;99.90
13223;DHT22;6676;45.192;5.722;2022-10-16T02:09:43;14.50;99.90
13223;DHT22;6676;45.192;5.722;2022-10-16T02:12:36;14.50;99.90
13223;DHT22;6676;45.192;5.722;2022-10-16T02:15:29;14.50;99.90
13223;DHT22;6676;45.192;5.722;2022-10-16T02:18:21;14.50;99.90
13223;DHT22;6676;45.192;5.722;2022-10-16T02:21:16;14.60;99.90
13223;DHT22;6676;45.192;5.722;2022-10-16T02:24:13;14.60;99.90
13223;DHT22;6676;45.192;5.722;2022-10-16T02:27:10;14.60;99.90
13223;DHT22;6676;45.192;5.722;2022-10-16T02:30:05;14.60;99.90
13223;DHT22;6676;45.192;5.722;2022-10-16T02:32:59;14.70;99.90
13223;DHT22;6676;45.192;5.722;2022-10-16T02:35:51;14.70;99.90
13223;DHT22;6676;45.192;5.722;2022-10-16T02:38:44;14.50;99.90
13223;DHT22;6676;45.192;5.722;2022-10-16T02:41:37;14.50;99.90
13223;DHT22;6676;45.192;5.722;2022-10-16T02:44:28;14.30;99.90
13223;DHT22;6676;45.192;5.722;2022-10-16T02:47:24;14.30;99.90
13223;DHT22;6676;45.192;5.722;2022-10-16T02:50:16;14.20;99.90
13223;DHT22;6676;45.192;5.722;2022-10-16T02:53:07;14.10;99.90
13223;DHT22;6676;45.192;5.722;2022-10-16T02:55:59;14.20;99.90
13223;DHT22;6676;45.192;5.722;2022-10-16T02:58:50;14.30;99.90
13223;DHT22;6676;45.192;5.722;2022-10-16T03:01:41;14.30;99.90
13223;DHT22;6676;45.192;5.722;2022-10-16T03:04:33;14.30;99.90
13223;DHT22;6676;45.192;5.722;2022-10-16T03:07:25;14.30;99.90
13223;DHT22;6676;45.192;5.722;2022-10-16T03:10:17;14.40;99.90
13223;DHT22;6676;45.192;5.722;2022-10-16T03:13:08;14.40;99.90
13223;DHT22;6676;45.192;5.722;2022-10-16T03:16:00;14.40;99.90
13223;DHT22;6676;45.192;5.722;2022-10-16T03:18:51;14.40;99.90
13223;DHT22;6676;45.192;5.722;2022-10-16T03:21:43;14.40;99.90
13223;DHT22;6676;45.192;5.722;2022-10-16T03:24:36;14.50;99.90
13223;DHT22;6676;45.192;5.722;2022-10-16T03:27:28;14.50;99.90
13223;DHT22;6676;45.192;5.722;2022-10-16T03:30:20;14.60;99.90
13223;DHT22;6676;45.192;5.722;2022-10-16T03:33:11;14.60;99.90
13223;DHT22;6676;45.192;5.722;2022-10-16T03:36:03;14.60;99.90
13223;DHT22;6676;45.192;5.722;2022-10-16T03:38:55;14.60;99.90
13223;DHT22;6676;45.192;5.722;2022-10-16T03:41:46;14.60;99.90
13223;DHT22;6676;45.192;5.722;2022-10-16T03:44:38;14.60;99.90
13223;DHT22;6676;45.192;5.722;2022-10-16T03:47:29;14.50;99.90
13223;DHT22;6676;45.192;5.722;2022-10-16T03:50:23;14.50;99.90
13223;DHT22;6676;45.192;5.722;2022-10-16T03:53:14;14.50;99.90
13223;DHT22;6676;45.192;5.722;2022-10-16T03:56:06;14.50;99.90
13223;DHT22;6676;45.192;5.722;2022-10-16T03:58:58;14.50;99.90
13223;DHT22;6676;45.192;5.722;2022-10-16T04:01:49;14.60;99.90
13223;DHT22;6676;45.192;5.722;2022-10-16T04:04:41;14.60;99.90
13223;DHT22;6676;45.192;5.722;2022-10-16T04:07:32;14.60;99.90
13223;DHT22;6676;45.192;5.722;2022-10-16T04:10:24;14.70;99.90
13223;DHT22;6676;45.192;5.722;2022-10-16T04:13:15;14.70;99.90
13223;DHT22;6676;45.192;5.722;2022-10-16T04:16:07;14.70;99.90
13223;DHT22;6676;45.192;5.722;2022-10-16T04:18:58;14.60;99.90
13223;DHT22;6676;45.192;5.722;2022-10-16T04:21:50;14.60;99.90
13223;DHT22;6676;45.192;5.722;2022-10-16T04:24:41;14.60;99.90
13223;DHT22;6676;45.192;5.722;2022-10-16T04:27:33;14.60;99.90
13223;DHT22;6676;45.192;5.722;2022-10-16T04:30:25;14.50;99.90
13223;DHT22;6676;45.192;5.722;2022-10-16T04:33:17;14.40;99.90
13223;DHT22;6676;45.192;5.722;2022-10-16T04:36:09;14.30;99.90
13223;DHT22;6676;45.192;5.722;2022-10-16T04:39:01;14.30;99.90
13223;DHT22;6676;45.192;5.722;2022-10-16T04:41:53;14.30;99.90
13223;DHT22;6676;45.192;5.722;2022-10-16T04:44:44;14.40;99.90
13223;DHT22;6676;45.192;5.722;2022-10-16T04:47:36;14.40;99.90
13223;DHT22;6676;45.192;5.722;2022-10-16T04:50:27;14.30;99.90
13223;DHT22;6676;45.192;5.722;2022-10-16T04:53:28;14.30;99.90
13223;DHT22;6676;45.192;5.722;2022-10-16T04:56:20;14.20;99.90
13223;DHT22;6676;45.192;5.722;2022-10-16T04:59:11;14.20;99.90
13223;DHT22;6676;45.192;5.722;2022-10-16T05:02:03;14.10;99.90
13223;DHT22;6676;45.192;5.722;2022-10-16T05:04:55;14.10;99.90
13223;DHT22;6676;45.192;5.722;2022-10-16T05:07:46;14.10;99.90
13223;DHT22;6676;45.192;5.722;2022-10-16T05:10:40;14.10;99.90
13223;DHT22;6676;45.192;5.722;2022-10-16T05:13:32;14.10;99.90
13223;DHT22;6676;45.192;5.722;2022-10-16T05:16:23;14.10;99.90
13223;DHT22;6676;45.192;5.722;2022-10-16T05:19:15;14.00;99.90
13223;DHT22;6676;45.192;5.722;2022-10-16T05:22:08;14.10;99.90
13223;DHT22;6676;45.192;5.722;2022-10-16T05:24:59;14.10;99.90
13223;DHT22;6676;45.192;5.722;2022-10-16T05:27:51;14.10;99.90
13223;DHT22;6676;45.192;5.722;2022-10-16T05:30:44;14.10;99.90
13223;DHT22;6676;45.192;5.722;2022-10-16T05:33:36;14.10;99.90
13223;DHT22;6676;45.192;5.722;2022-10-16T05:36:28;14.00;99.90
13223;DHT22;6676;45.192;5.722;2022-10-16T05:39:19;14.00;99.90
13223;DHT22;6676;45.192;5.722;2022-10-16T05:42:10;14.00;99.90
13223;DHT22;6676;45.192;5.722;2022-10-16T05:45:02;13.90;99.90
13223;DHT22;6676;45.192;5.722;2022-10-16T05:47:53;13.90;99.90
13223;DHT22;6676;45.192;5.722;2022-10-16T05:50:47;13.90;99.90
13223;DHT22;6676;45.192;5.722;2022-10-16T05:53:39;13.90;99.90
13223;DHT22;6676;45.192;5.722;2022-10-16T05:56:30;13.90;99.90
13223;DHT22;6676;45.192;5.722;2022-10-16T05:59:22;13.90;99.90
13223;DHT22;6676;45.192;5.722;2022-10-16T06:02:15;13.90;99.90
13223;DHT22;6676;45.192;5.722;2022-10-16T06:05:06;14.00;99.90
13223;DHT22;6676;45.192;5.722;2022-10-16T06:07:58;14.00;99.90
13223;DHT22;6676;45.192;5.722;2022-10-16T06:11:00;13.90;99.90
13223;DHT22;6676;45.192;5.722;2022-10-16T06:13:53;13.90;99.90
13223;DHT22;6676;45.192;5.722;2022-10-16T06:16:46;13.90;99.90
13223;DHT22;6676;45.192;5.722;2022-10-16T06:19:38;13.90;99.90
13223;DHT22;6676;45.192;5.722;2022-10-16T06:22:29;13.90;99.90
13223;DHT22;6676;45.192;5.722;2022-10-16T06:25:21;13.80;99.90
13223;DHT22;6676;45.192;5.722;2022-10-16T06:28:14;13.80;99.90
13223;DHT22;6676;45.192;5.722;2022-10-16T06:31:10;13.80;99.90
13223;DHT22;6676;45.192;5.722;2022-10-16T06:34:02;13.80;99.90
13223;DHT22;6676;45.192;5.722;2022-10-16T06:36:55;13.80;99.90
13223;DHT22;6676;45.192;5.722;2022-10-16T06:39:46;13.80;99.90
13223;DHT22;6676;45.192;5.722;2022-10-16T06:42:38;13.80;99.90
13223;DHT22;6676;45.192;5.722;2022-10-16T06:45:29;13.90;99.90
13223;DHT22;6676;45.192;5.722;2022-10-16T06:48:21;13.90;99.90
13223;DHT22;6676;45.192;5.722;2022-10-16T06:51:14;13.90;99.90
13223;DHT22;6676;45.192;5.722;2022-10-16T06:54:08;14.00;99.90
13223;DHT22;6676;45.192;5.722;2022-10-16T06:57:00;14.10;99.90
13223;DHT22;6676;45.192;5.722;2022-10-16T06:59:51;14.20;99.90
13223;DHT22;6676;45.192;5.722;2022-10-16T07:02:44;14.20;99.90
13223;DHT22;6676;45.192;5.722;2022-10-16T07:05:39;14.30;99.90
13223;DHT22;6676;45.192;5.722;2022-10-16T07:08:32;14.40;99.90
13223;DHT22;6676;45.192;5.722;2022-10-16T07:11:24;14.40;99.90
13223;DHT22;6676;45.192;5.722;2022-10-16T07:14:18;14.40;99.90
13223;DHT22;6676;45.192;5.722;2022-10-16T07:17:10;14.40;99.90
13223;DHT22;6676;45.192;5.722;2022-10-16T07:20:02;14.50;99.90
13223;DHT22;6676;45.192;5.722;2022-10-16T07:22:54;14.60;99.90
13223;DHT22;6676;45.192;5.722;2022-10-16T07:25:46;14.60;99.90
13223;DHT22;6676;45.192;5.722;2022-10-16T07:28:38;14.60;99.90
13223;DHT22;6676;45.192;5.722;2022-10-16T07:31:30;14.70;99.90
13223;DHT22;6676;45.192;5.722;2022-10-16T07:34:22;14.70;99.90
13223;DHT22;6676;45.192;5.722;2022-10-16T07:37:16;14.70;99.90
13223;DHT22;6676;45.192;5.722;2022-10-16T07:40:10;14.80;99.90
13223;DHT22;6676;45.192;5.722;2022-10-16T08:15:58;15.50;99.90
13223;DHT22;6676;45.192;5.722;2022-10-16T08:18:50;15.60;99.90
13223;DHT22;6676;45.192;5.722;2022-10-16T08:21:41;15.70;99.90
13223;DHT22;6676;45.192;5.722;2022-10-16T08:24:33;15.80;99.90
13223;DHT22;6676;45.192;5.722;2022-10-16T08:27:25;16.00;99.90
13223;DHT22;6676;45.192;5.722;2022-10-16T08:30:18;16.10;99.90
13223;DHT22;6676;45.192;5.722;2022-10-16T08:33:10;16.20;99.90
13223;DHT22;6676;45.192;5.722;2022-10-16T08:36:02;16.30;99.90
13223;DHT22;6676;45.192;5.722;2022-10-16T08:38:54;16.40;99.90
13223;DHT22;6676;45.192;5.722;2022-10-16T08:45:15;16.60;99.90
13223;DHT22;6676;45.192;5.722;2022-10-16T08:48:16;16.70;99.90
13223;DHT22;6676;45.192;5.722;2022-10-16T08:51:11;16.80;99.90
13223;DHT22;6676;45.192;5.722;2022-10-16T08:54:05;16.90;99.90
13223;DHT22;6676;45.192;5.722;2022-10-16T08:57:00;17.00;99.90
13223;DHT22;6676;45.192;5.722;2022-10-16T08:59:53;17.10;99.90
13223;DHT22;6676;45.192;5.722;2022-10-16T09:02:50;17.20;99.90
13223;DHT22;6676;45.192;5.722;2022-10-16T09:05:54;17.30;99.90
13223;DHT22;6676;45.192;5.722;2022-10-16T09:11:57;17.50;99.90
13223;DHT22;6676;45.192;5.722;2022-10-16T09:14:57;17.70;99.90
13223;DHT22;6676;45.192;5.722;2022-10-16T09:17:54;17.70;99.90
13223;DHT22;6676;45.192;5.722;2022-10-16T09:23:30;17.90;99.90
13223;DHT22;6676;45.192;5.722;2022-10-16T09:26:21;17.90;99.90
13223;DHT22;6676;45.192;5.722;2022-10-16T09:29:14;18.00;99.90
13223;DHT22;6676;45.192;5.722;2022-10-16T09:32:11;18.00;99.90
13223;DHT22;6676;45.192;5.722;2022-10-16T09:35:03;18.10;99.90
13223;DHT22;6676;45.192;5.722;2022-10-16T09:37:55;18.10;99.90
13223;DHT22;6676;45.192;5.722;2022-10-16T09:40:46;18.20;99.90
13223;DHT22;6676;45.192;5.722;2022-10-16T09:43:41;18.20;99.90
13223;DHT22;6676;45.192;5.722;2022-10-16T09:46:35;18.40;99.90
13223;DHT22;6676;45.192;5.722;2022-10-16T09:49:27;18.50;99.90
13223;DHT22;6676;45.192;5.722;2022-10-16T09:52:19;18.60;99.90
13223;DHT22;6676;45.192;5.722;2022-10-16T09:55:17;18.70;99.90
13223;DHT22;6676;45.192;5.722;2022-10-16T09:58:14;18.80;99.90
13223;DHT22;6676;45.192;5.722;2022-10-16T10:01:11;18.90;99.90
13223;DHT22;6676;45.192;5.722;2022-10-16T10:03:59;18.90;99.90
13223;DHT22;6676;45.192;5.722;2022-10-16T10:06:53;19.00;99.90
13223;DHT22;6676;45.192;5.722;2022-10-16T10:09:46;19.10;99.90
13223;DHT22;6676;45.192;5.722;2022-10-16T10:12:38;19.20;99.90
13223;DHT22;6676;45.192;5.722;2022-10-16T10:15:33;19.30;99.90
13223;DHT22;6676;45.192;5.722;2022-10-16T10:18:23;19.40;99.90
13223;DHT22;6676;45.192;5.722;2022-10-16T10:21:16;19.40;99.90
13223;DHT22;6676;45.192;5.722;2022-10-16T10:24:12;19.60;99.90
13223;DHT22;6676;45.192;5.722;2022-10-16T10:27:06;19.60;99.90
13223;DHT22;6676;45.192;5.722;2022-10-16T10:30:01;19.70;99.90
13223;DHT22;6676;45.192;5.722;2022-10-16T10:33:00;19.80;99.90
13223;DHT22;6676;45.192;5.722;2022-10-16T10:38:39;20.00;99.90
13223;DHT22;6676;45.192;5.722;2022-10-16T10:45:24;20.20;99.90
13223;DHT22;6676;45.192;5.722;2022-10-16T10:48:26;20.30;99.90
13223;DHT22;6676;45.192;5.722;2022-10-16T10:51:20;20.40;99.90
13223;DHT22;6676;45.192;5.722;2022-10-16T10:54:16;20.50;99.90
13223;DHT22;6676;45.192;5.722;2022-10-16T10:57:12;20.70;99.90
13223;DHT22;6676;45.192;5.722;2022-10-16T11:00:16;20.80;99.90
13223;DHT22;6676;45.192;5.722;2022-10-16T11:03:13;20.90;99.90
13223;DHT22;6676;45.192;5.722;2022-10-16T11:06:08;21.10;99.90
13223;DHT22;6676;45.192;5.722;2022-10-16T11:09:06;21.30;99.90
13223;DHT22;6676;45.192;5.722;2022-10-16T11:11:58;21.30;99.90
13223;DHT22;6676;45.192;5.722;2022-10-16T11:17:35;21.80;99.90
13223;DHT22;6676;45.192;5.722;2022-10-16T11:20:29;22.00;99.90
13223;DHT22;6676;45.192;5.722;2022-10-16T11:23:25;22.20;99.90
13223;DHT22;6676;45.192;5.722;2022-10-16T11:26:19;22.50;99.90
13223;DHT22;6676;45.192;5.722;2022-10-16T11:29:15;22.90;99.90
13223;DHT22;6676;45.192;5.722;2022-10-16T11:32:11;23.10;99.90
13223;DHT22;6676;45.192;5.722;2022-10-16T11:35:05;23.30;99.90
13223;DHT22;6676;45.192;5.722;2022-10-16T11:37:57;23.50;99.90
13223;DHT22;6676;45.192;5.722;2022-10-16T11:40:52;23.80;99.90
13223;DHT22;6676;45.192;5.722;2022-10-16T11:43:48;24.00;99.90
13223;DHT22;6676;45.192;5.722;2022-10-16T11:46:40;24.20;99.90
13223;DHT22;6676;45.192;5.722;2022-10-16T11:49:37;24.30;99.90
13223;DHT22;6676;45.192;5.722;2022-10-16T11:52:33;24.50;99.90
13223;DHT22;6676;45.192;5.722;2022-10-16T11:55:27;24.60;99.90
13223;DHT22;6676;45.192;5.722;2022-10-16T11:58:26;24.80;99.90
13223;DHT22;6676;45.192;5.722;2022-10-16T12:01:24;24.90;99.90
13223;DHT22;6676;45.192;5.722;2022-10-16T12:07:03;25.00;99.90
13223;DHT22;6676;45.192;5.722;2022-10-16T12:09:55;24.90;99.90
13223;DHT22;6676;45.192;5.722;2022-10-16T12:15:29;25.20;99.90
13223;DHT22;6676;45.192;5.722;2022-10-16T12:18:23;25.40;99.90
13223;DHT22;6676;45.192;5.722;2022-10-16T12:21:15;25.50;99.90
13223;DHT22;6676;45.192;5.722;2022-10-16T12:24:26;25.60;99.90
13223;DHT22;6676;45.192;5.722;2022-10-16T12:30:03;25.70;99.90
13223;DHT22;6676;45.192;5.722;2022-10-16T12:32:56;25.70;99.90
13223;DHT22;6676;45.192;5.722;2022-10-16T12:35:48;25.70;99.90
13223;DHT22;6676;45.192;5.722;2022-10-16T12:38:46;25.60;99.90
13223;DHT22;6676;45.192;5.722;2022-10-16T12:41:37;25.70;99.90
13223;DHT22;6676;45.192;5.722;2022-10-16T12:44:34;25.80;99.90
13223;DHT22;6676;45.192;5.722;2022-10-16T12:47:36;25.90;99.90
13223;DHT22;6676;45.192;5.722;2022-10-16T12:50:31;25.80;99.90
13223;DHT22;6676;45.192;5.722;2022-10-16T12:56:08;26.00;99.90
13223;DHT22;6676;45.192;5.722;2022-10-16T12:59:04;26.10;99.90
13223;DHT22;6676;45.192;5.722;2022-10-16T13:04:58;26.20;99.90
13223;DHT22;6676;45.192;5.722;2022-10-16T13:07:54;26.20;99.90
13223;DHT22;6676;45.192;5.722;2022-10-16T13:10:53;26.20;99.90
13223;DHT22;6676;45.192;5.722;2022-10-16T13:14:12;26.30;99.90
13223;DHT22;6676;45.192;5.722;2022-10-16T13:19:45;26.30;99.90
13223;DHT22;6676;45.192;5.722;2022-10-16T13:22:40;26.30;99.90
13223;DHT22;6676;45.192;5.722;2022-10-16T13:25:39;26.30;99.90
13223;DHT22;6676;45.192;5.722;2022-10-16T13:28:32;26.40;99.90
13223;DHT22;6676;45.192;5.722;2022-10-16T13:31:25;26.40;99.90
13223;DHT22;6676;45.192;5.722;2022-10-16T13:34:19;26.40;99.70
13223;DHT22;6676;45.192;5.722;2022-10-16T13:40:12;26.50;98.80
13223;DHT22;6676;45.192;5.722;2022-10-16T13:43:03;26.60;98.00
13223;DHT22;6676;45.192;5.722;2022-10-16T13:48:37;26.60;97.90
13223;DHT22;6676;45.192;5.722;2022-10-16T13:51:30;26.60;97.10
13223;DHT22;6676;45.192;5.722;2022-10-16T13:54:21;26.60;96.80
13223;DHT22;6676;45.192;5.722;2022-10-16T13:57:14;26.60;97.10
13223;DHT22;6676;45.192;5.722;2022-10-16T14:00:21;26.60;96.60
13223;DHT22;6676;45.192;5.722;2022-10-16T14:03:15;26.70;96.40
13223;DHT22;6676;45.192;5.722;2022-10-16T14:06:12;26.60;96.40
13223;DHT22;6676;45.192;5.722;2022-10-16T14:09:08;26.50;96.30
13223;DHT22;6676;45.192;5.722;2022-10-16T14:12:02;26.50;96.10
13223;DHT22;6676;45.192;5.722;2022-10-16T14:14:55;26.70;96.10
13223;DHT22;6676;45.192;5.722;2022-10-16T14:17:49;26.80;95.60
13223;DHT22;6676;45.192;5.722;2022-10-16T14:20:41;27.60;94.20
13223;DHT22;6676;45.192;5.722;2022-10-16T14:23:34;27.50;93.80
13223;DHT22;6676;45.192;5.722;2022-10-16T14:26:29;27.20;94.10
13223;DHT22;6676;45.192;5.722;2022-10-16T14:29:21;27.00;94.10
13223;DHT22;6676;45.192;5.722;2022-10-16T14:32:23;26.80;94.00
13223;DHT22;6676;45.192;5.722;2022-10-16T14:35:25;26.90;94.00
13223;DHT22;6676;45.192;5.722;2022-10-16T14:40:58;26.70;93.80
13223;DHT22;6676;45.192;5.722;2022-10-16T14:43:51;26.70;93.90
13223;DHT22;6676;45.192;5.722;2022-10-16T14:46:44;26.60;94.10
13223;DHT22;6676;45.192;5.722;2022-10-16T14:49:36;26.70;94.40
13223;DHT22;6676;45.192;5.722;2022-10-16T14:52:27;26.60;94.20
13223;DHT22;6676;45.192;5.722;2022-10-16T14:55:19;26.60;94.10
13223;DHT22;6676;45.192;5.722;2022-10-16T14:58:14;26.60;94.00
13223;DHT22;6676;45.192;5.722;2022-10-16T15:01:06;26.50;94.00
13223;DHT22;6676;45.192;5.722;2022-10-16T15:06:36;26.40;94.20
13223;DHT22;6676;45.192;5.722;2022-10-16T15:12:06;26.30;94.10
13223;DHT22;6676;45.192;5.722;2022-10-16T15:14:57;26.30;94.00
13223;DHT22;6676;45.192;5.722;2022-10-16T15:17:49;26.30;93.70
13223;DHT22;6676;45.192;5.722;2022-10-16T15:20:42;26.30;93.80
13223;DHT22;6676;45.192;5.722;2022-10-16T15:23:33;26.40;93.80
13223;DHT22;6676;45.192;5.722;2022-10-16T15:26:25;26.50;93.70
13223;DHT22;6676;45.192;5.722;2022-10-16T15:29:17;26.60;93.50
13223;DHT22;6676;45.192;5.722;2022-10-16T15:32:10;27.00;92.70
13223;DHT22;6676;45.192;5.722;2022-10-16T15:35:02;28.90;91.30
13223;DHT22;6676;45.192;5.722;2022-10-16T15:37:53;30.30;90.10
13223;DHT22;6676;45.192;5.722;2022-10-16T15:40:46;31.30;84.90
13223;DHT22;6676;45.192;5.722;2022-10-16T15:43:38;31.70;82.70
13223;DHT22;6676;45.192;5.722;2022-10-16T15:49:13;31.20;79.80
13223;DHT22;6676;45.192;5.722;2022-10-16T15:52:05;31.00;80.00
13223;DHT22;6676;45.192;5.722;2022-10-16T15:54:57;31.00;78.60
13223;DHT22;6676;45.192;5.722;2022-10-16T15:57:48;30.40;78.50
13223;DHT22;6676;45.192;5.722;2022-10-16T16:00:40;29.40;80.40
13223;DHT22;6676;45.192;5.722;2022-10-16T16:03:32;28.30;82.30
13223;DHT22;6676;45.192;5.722;2022-10-16T16:06:25;27.40;83.60
13223;DHT22;6676;45.192;5.722;2022-10-16T16:09:18;26.80;85.70
13223;DHT22;6676;45.192;5.722;2022-10-16T16:14:49;26.10;88.10
13223;DHT22;6676;45.192;5.722;2022-10-16T16:20:19;25.60;90.00
13223;DHT22;6676;45.192;5.722;2022-10-16T16:26:04;25.30;90.70
13223;DHT22;6676;45.192;5.722;2022-10-16T16:28:56;25.30;91.00
13223;DHT22;6676;45.192;5.722;2022-10-16T16:31:47;25.20;91.10
13223;DHT22;6676;45.192;5.722;2022-10-16T16:34:39;25.10;91.50
13223;DHT22;6676;45.192;5.722;2022-10-16T16:37:30;24.90;91.90
13223;DHT22;6676;45.192;5.722;2022-10-16T16:40:22;24.70;92.20
13223;DHT22;6676;45.192;5.722;2022-10-16T16:43:14;24.60;92.70
13223;DHT22;6676;45.192;5.722;2022-10-16T16:46:05;24.50;92.90
13223;DHT22;6676;45.192;5.722;2022-10-16T16:48:58;24.40;93.30
13223;DHT22;6676;45.192;5.722;2022-10-16T16:54:33;24.20;94.10
13223;DHT22;6676;45.192;5.722;2022-10-16T17:00:04;24.00;94.60
13223;DHT22;6676;45.192;5.722;2022-10-16T17:05:35;24.00;95.00
13223;DHT22;6676;45.192;5.722;2022-10-16T17:11:10;23.80;95.70
13223;DHT22;6676;45.192;5.722;2022-10-16T17:16:39;23.70;96.50
13223;DHT22;6676;45.192;5.722;2022-10-16T17:19:32;23.70;96.40
13223;DHT22;6676;45.192;5.722;2022-10-16T17:25:02;23.70;96.60
13223;DHT22;6676;45.192;5.722;2022-10-16T17:27:53;23.60;96.90
13223;DHT22;6676;45.192;5.722;2022-10-16T17:30:45;23.50;97.10
13223;DHT22;6676;45.192;5.722;2022-10-16T17:33:35;23.40;97.30
13223;DHT22;6676;45.192;5.722;2022-10-16T17:36:28;23.30;97.50
13223;DHT22;6676;45.192;5.722;2022-10-16T17:39:21;23.40;97.70
13223;DHT22;6676;45.192;5.722;2022-10-16T17:42:12;23.50;97.50
13223;DHT22;6676;45.192;5.722;2022-10-16T17:45:05;23.50;97.80
13223;DHT22;6676;45.192;5.722;2022-10-16T17:47:58;23.30;98.00
13223;DHT22;6676;45.192;5.722;2022-10-16T17:50:49;23.40;98.30
13223;DHT22;6676;45.192;5.722;2022-10-16T17:53:40;23.30;98.50
13223;DHT22;6676;45.192;5.722;2022-10-16T17:59:30;23.10;99.20
13223;DHT22;6676;45.192;5.722;2022-10-16T18:05:00;23.10;99.50
13223;DHT22;6676;45.192;5.722;2022-10-16T18:14:14;23.20;99.50
13223;DHT22;6676;45.192;5.722;2022-10-16T18:19:47;23.20;99.90
13223;DHT22;6676;45.192;5.722;2022-10-16T18:22:38;23.20;99.90
13223;DHT22;6676;45.192;5.722;2022-10-16T18:25:29;23.00;99.90
13223;DHT22;6676;45.192;5.722;2022-10-16T18:28:20;23.00;99.90
13223;DHT22;6676;45.192;5.722;2022-10-16T18:31:13;23.00;99.90
13223;DHT22;6676;45.192;5.722;2022-10-16T18:34:05;23.00;99.90
13223;DHT22;6676;45.192;5.722;2022-10-16T18:36:56;23.00;99.90
13223;DHT22;6676;45.192;5.722;2022-10-16T18:39:47;22.90;99.90
13223;DHT22;6676;45.192;5.722;2022-10-16T18:45:18;22.80;99.90
13223;DHT22;6676;45.192;5.722;2022-10-16T18:48:10;22.80;99.90
13223;DHT22;6676;45.192;5.722;2022-10-16T18:51:08;22.80;99.90
13223;DHT22;6676;45.192;5.722;2022-10-16T18:56:38;22.80;99.90
13223;DHT22;6676;45.192;5.722;2022-10-16T18:59:29;22.80;99.90
13223;DHT22;6676;45.192;5.722;2022-10-16T19:05:00;22.70;99.90
13223;DHT22;6676;45.192;5.722;2022-10-16T19:07:52;22.70;99.90
13223;DHT22;6676;45.192;5.722;2022-10-16T19:10:44;22.70;99.90
13223;DHT22;6676;45.192;5.722;2022-10-16T19:13:35;22.60;99.90
13223;DHT22;6676;45.192;5.722;2022-10-16T19:16:28;22.60;99.90
13223;DHT22;6676;45.192;5.722;2022-10-16T19:21:59;22.50;99.90
13223;DHT22;6676;45.192;5.722;2022-10-16T19:25:02;22.50;99.90
13223;DHT22;6676;45.192;5.722;2022-10-16T19:30:36;22.10;99.90
13223;DHT22;6676;45.192;5.722;2022-10-16T19:33:28;21.90;99.90
13223;DHT22;6676;45.192;5.722;2022-10-16T19:36:21;21.60;99.90
13223;DHT22;6676;45.192;5.722;2022-10-16T19:39:14;21.40;99.90
13223;DHT22;6676;45.192;5.722;2022-10-16T19:44:45;21.10;99.90
13223;DHT22;6676;45.192;5.722;2022-10-16T19:47:37;20.90;99.90
13223;DHT22;6676;45.192;5.722;2022-10-16T19:50:28;20.80;99.90
13223;DHT22;6676;45.192;5.722;2022-10-16T19:55:58;20.50;99.90
13223;DHT22;6676;45.192;5.722;2022-10-16T19:58:50;20.50;99.90
13223;DHT22;6676;45.192;5.722;2022-10-16T20:01:42;20.80;99.90
13223;DHT22;6676;45.192;5.722;2022-10-16T20:04:34;20.70;99.90
13223;DHT22;6676;45.192;5.722;2022-10-16T20:07:25;20.60;99.90
13223;DHT22;6676;45.192;5.722;2022-10-16T20:10:17;20.50;99.90
13223;DHT22;6676;45.192;5.722;2022-10-16T20:13:08;20.40;99.90
13223;DHT22;6676;45.192;5.722;2022-10-16T20:16:03;20.40;99.90
13223;DHT22;6676;45.192;5.722;2022-10-16T20:18:56;20.40;99.90
13223;DHT22;6676;45.192;5.722;2022-10-16T20:21:47;20.30;99.90
13223;DHT22;6676;45.192;5.722;2022-10-16T20:24:38;20.20;99.90
13223;DHT22;6676;45.192;5.722;2022-10-16T20:27:30;20.10;99.90
13223;DHT22;6676;45.192;5.722;2022-10-16T20:30:21;20.10;99.90
13223;DHT22;6676;45.192;5.722;2022-10-16T20:33:12;20.00;99.90
13223;DHT22;6676;45.192;5.722;2022-10-16T20:36:09;20.00;99.90
13223;DHT22;6676;45.192;5.722;2022-10-16T20:39:01;19.90;99.90
13223;DHT22;6676;45.192;5.722;2022-10-16T20:41:53;20.00;99.90
13223;DHT22;6676;45.192;5.722;2022-10-16T20:44:44;20.00;99.90
13223;DHT22;6676;45.192;5.722;2022-10-16T20:47:36;20.00;99.90
13223;DHT22;6676;45.192;5.722;2022-10-16T20:50:29;20.00;99.90
13223;DHT22;6676;45.192;5.722;2022-10-16T20:53:20;20.00;99.90
13223;DHT22;6676;45.192;5.722;2022-10-16T20:56:12;20.00;99.90
13223;DHT22;6676;45.192;5.722;2022-10-16T20:59:06;19.90;99.90
13223;DHT22;6676;45.192;5.722;2022-10-16T21:01:57;19.80;99.90
13223;DHT22;6676;45.192;5.722;2022-10-16T21:04:49;19.70;99.90
13223;DHT22;6676;45.192;5.722;2022-10-16T21:07:40;19.60;99.90